Enter the Airport ICAO Code

Search by Airport or City

Current Weather

LEGR | Federico García Lorca Airport (Granada Jaén Airport)

Granada, Andalusia, Spain

Last Update 25 Minutes Ago

Sky with Few Clouds

Temperature of 17 ºC

Light to Moderate Winds from West

Temperature

17 ºC

Dew Point Temperature

08 ºC

Relative Humidity

55.54 %

Wind Direction

West (280º, Ranging from 250º to 320º)

Wind Velocity

11 km/h (06 kt)

Gusts

None

Visibility

Greater than 10 Kilometers

Sea Level Pressure

1020 hPa (Hectopascals)

Layers of Clouds

5% to 30% of Sky Covered from 1524 mts (5000 ft) Above Ground Level.

METAR LEGR 071530Z 28006KT 250V320 9999 FEW050 17/08 Q1020

Weather Forecast

LEGR | Federico García Lorca Airport (Granada Jaén Airport)

Granada, Andalusia, Spain

Forecast valid for the next 20 Hours

From now on it is expected:

Clear Sky

Light Winds from Variable Directions

From now on it is expected 4 hours with intermittent periods of:

Moderate Winds from West

In 5 hours it is expected the begining of 13 hours with intermittent periods of:

Mostly Cloudy Sky

In 11 hours it is expected the begining of 6 hours with intermittent periods of:

Rain, Mist

Moderate Winds from West

Maximum Temperature

17 ºC in -1 Hours

Minimum Temperature

05 ºC in 15 Hours

TAF LEGR 071100Z 0712/0812 VRB02KT CAVOK TX17/0715Z TN05/0807Z TEMPO 0715/0720 27010KT TEMPO 0721/0810 BKN014 PROB40 TEMPO 0803/0809 27010KT 4000 RA BR BKN008